Somerville, MA (02143)

7:54 AM EST on February 14, 2016 (GMT -0500)
Union Square | | Change Station
CLOSE
Current Station
Personal Weather Station
Location: Somerville, MA
Elevation: 36 ft
Nearby Weather Stations
Active Advisory: Wind Chill Warning Active Notice: Record Report

Elev 36 ft 42.38 °N, 71.10 °W | Updated 2 minutes ago

Clear
Clear
-7.6 °F
Feels Like -28 °F
N
13.5
Wind Variable Wind from WNW

Today
High -- | Low -- °F
--% Chance of Precip.
Yesterday
High -- | Low -- °F
Precip. -- in
Pressure 30.32 in
Visibility 10.0 miles
Clouds Few 4000 ft
Windchill -28 °F
Dew Point -22 °F
Humidity 49%
Rainfall 0.00 in
Snow Depth Not available.
6:42 AM 5:14 PM
Waxing Crescent, 41% visible
METAR KBOS 141154Z 29021G27KT 10SM BCFG FEW040 M23/M31 A3032 RMK AO2 PK WND 29032/1120 SLP265 T12281311 11211 21228 51031
Pressure 30.32 in
Visibility 10.0 miles
Clouds Few 4000 ft
Windchill -28 °F
Dew Point -22 °F
Humidity 49%
Rainfall 0.00 in
Snow Depth Not available.
6:42 AM 5:14 PM
Waxing Crescent, 41% visible
METAR KBOS 141154Z 29021G27KT 10SM BCFG FEW040 M23/M31 A3032 RMK AO2 PK WND 29032/1120 SLP265 T12281311 11211 21228 51031

10-Day Weather Forecast

Almanac

Astronomy

Feb. 14, 2016 Rise Set
Actual Time
Civil Twilight
Nautical Twilight
Astronomical Twilight
Moon
Length of Visible Light
Length of Day
Tomorrow will be .
, % of the Moon is Illuminated

Today's Extremes

State Highs State Lows

Community

WunderPhotos

Upload Photos

1,892,775 photos uploaded!

WunderBlog® & News

Nearby

Air Quality

  Air Quality AQ Index Pollutant
Not available.

Snow Depth

Station Depth Elevation

Earthquake Activity

City Distance Mag. Time & Date
Minimum magnitude displayed is 2.5.

Coastal Water Temperatures

Place Temperature

Stations

Nearby Weather Stations

Station Location Temp. Windchill Dew Point Humidity Wind Precip. Elev Updated Type
                   

Watches & Warnings

Wind Chill Warning
Issued: 4:13 AM EST Feb. 14, 2016 – National Weather Service

... Wind chill warning remains in effect until noon EST today...

* locations... include all of southern New England except Cape
Cod and the islands.

* Hazard types... life threatening wind chills.

* Wind chill readings... between 25 and 40 below zero.

* Timing... the worst of the wind chills will be this morning.

* Impacts... wind chills this cold can bring on frostbite in as
little as 10 minutes! Outdoor exposure should be limited in
these conditions.

* Air temperatures... lows between 8 and 16 below zero early this
morning with even a few colder spots over the higher terrain.

Precautionary/preparedness actions...

A wind chill warning is issued when the wind chill index is
likely to fall to -25 degrees or colder for at least 3 hours. A
wind chill index below -30 can bring about frostbite in as little
as 10 minutes. Outdoor exposure should be limited. If you are
heading outdoors... dress in layers and keep your hands and head
covered to protect against frostbite